Time;durP1;ratioP1;P1;durP2;ratioP2;P2;SDS_P1;SDS_P2;PMS_P1;PMS_P2;Temp;Humidity;BMP_temperature;BMP_pressure;BME280_temperature;BME280_humidity;BME280_pressure;Samples;Min_cycle;Max_cycle;Signal;HPM_P1;HPM_P2
2023/04/29 00:01:07;;;;;;;7.40;6.70;;;;;;;12.82;79.57;95889.41;4976144;28;20923;-73
2023/04/29 00:03:33;;;;;;;16.87;6.87;;;;;;;12.79;79.90;95883.50;4973004;28;20220;-74
2023/04/29 00:05:59;;;;;;;9.50;6.90;;;;;;;12.82;79.18;95880.69;4979536;28;20757;-73
2023/04/29 00:08:25;;;;;;;6.10;5.50;;;;;;;12.84;79.82;95882.28;4985486;28;20208;-72
2023/04/29 00:10:50;;;;;;;6.40;5.80;;;;;;;12.86;79.33;95880.41;4986823;28;20439;-72
2023/04/29 00:13:16;;;;;;;7.83;5.73;;;;;;;12.79;80.00;95875.59;4980909;28;20200;-73
2023/04/29 00:15:42;;;;;;;7.20;6.50;;;;;;;12.87;79.49;95879.47;4985124;28;20770;-72
2023/04/29 00:18:09;;;;;;;10.00;6.00;;;;;;;12.80;79.81;95886.03;4986871;28;20191;-73
2023/04/29 00:20:35;;;;;;;7.43;4.93;;;;;;;12.79;79.90;95875.59;4989265;28;20552;-73
2023/04/29 00:23:01;;;;;;;5.30;4.80;;;;;;;12.74;80.18;95875.88;4981408;28;20461;-72
2023/04/29 00:25:26;;;;;;;6.03;5.50;;;;;;;12.80;79.84;95883.38;4988232;28;20545;-72
2023/04/29 00:27:52;;;;;;;7.00;6.00;;;;;;;12.85;79.68;95885.75;4982023;28;20184;-72
2023/04/29 00:30:17;;;;;;;5.63;5.03;;;;;;;12.86;79.54;95882.19;4989774;28;20266;-73
2023/04/29 00:32:43;;;;;;;7.97;5.73;;;;;;;12.87;79.28;95881.25;4987794;28;20792;-73
2023/04/29 00:35:09;;;;;;;6.40;5.27;;;;;;;12.88;79.99;95880.31;4980170;28;20235;-73
2023/04/29 00:37:35;;;;;;;5.53;5.03;;;;;;;12.80;80.02;95886.03;4981415;28;20196;-73
2023/04/29 00:40:00;;;;;;;7.20;5.20;;;;;;;12.78;80.30;95873.91;4988549;28;20563;-73
2023/04/29 00:42:28;;;;;;;6.37;5.77;;;;;;;12.80;79.39;95879.91;4985671;28;20232;-71
2023/04/29 00:44:53;;;;;;;6.90;5.37;;;;;;;12.71;79.84;95881.34;4985798;28;20550;-71
2023/04/29 00:47:19;;;;;;;7.63;5.50;;;;;;;12.68;79.99;95876.25;4988709;28;20447;-71
2023/04/29 00:49:44;;;;;;;8.70;5.60;;;;;;;12.68;80.05;95871.84;4987771;28;20621;-70
2023/04/29 00:52:13;;;;;;;6.20;5.60;;;;;;;12.78;79.67;95880.03;4988873;28;20180;-72
2023/04/29 00:54:39;;;;;;;6.60;5.07;;;;;;;12.68;80.07;95882.38;4987630;28;20204;-72
2023/04/29 00:57:06;;;;;;;6.63;5.47;;;;;;;12.70;79.52;95879.63;4988758;28;20956;-72
2023/04/29 00:59:32;;;;;;;6.13;5.37;;;;;;;12.66;80.30;95878.13;4988067;28;20804;-72
2023/04/29 01:02:03;;;;;;;6.63;5.23;;;;;;;12.62;79.86;95888.00;4988672;28;20448;-73
2023/04/29 01:04:29;;;;;;;7.30;5.20;;;;;;;12.63;79.91;95880.94;4990696;28;20463;-71
2023/04/29 01:07:08;;;;;;;7.00;5.70;;;;;;;12.65;79.13;95882.53;4986324;28;20727;-73
2023/04/29 01:09:34;;;;;;;5.03;4.63;;;;;;;12.59;80.32;95893.47;4976770;28;21202;-75
2023/04/29 01:12:20;;;;;;;8.53;5.17;;;;;;;12.57;80.13;95895.34;4982162;28;20542;-74
2023/04/29 01:14:53;;;;;;;6.10;5.60;;;;;;;12.53;80.80;95893.81;4984786;28;20686;-73
2023/04/29 01:17:24;;;;;;;5.60;5.10;;;;;;;12.58;79.88;95901.44;4988089;28;20525;-72
2023/04/29 01:19:55;;;;;;;5.20;4.80;;;;;;;12.53;80.63;95900.88;4976354;28;20447;-73
2023/04/29 01:22:21;;;;;;;5.73;5.23;;;;;;;12.54;80.10;95899.91;4971956;28;20448;-73
2023/04/29 01:24:48;;;;;;;5.93;5.30;;;;;;;12.66;80.01;95907.06;4986228;28;20799;-72
2023/04/29 01:27:44;;;;;;;5.47;4.17;;;;;;;12.57;79.58;95905.88;5001078;28;20188;-73
2023/04/29 01:30:16;;;;;;;5.97;4.17;;;;;;;12.62;79.62;95902.97;4987244;28;20486;-72
2023/04/29 01:33:18;;;;;;;7.10;6.43;;;;;;;12.54;79.88;95906.03;4988603;28;20527;-74
2023/04/29 01:36:32;;;;;;;5.40;4.80;;;;;;;12.59;80.16;95911.88;4987029;28;21361;-72
2023/04/29 01:39:16;;;;;;;4.77;4.03;;;;;;;12.57;79.45;95900.59;4967766;28;20452;-72
2023/04/29 01:41:43;;;;;;;5.17;4.70;;;;;;;12.53;79.61;95903.50;4984636;28;20477;-72
2023/04/29 01:44:17;;;;;;;5.30;4.50;;;;;;;12.57;79.96;95905.03;4983293;28;20466;-71
2023/04/29 01:46:47;;;;;;;6.40;5.30;;;;;;;12.46;81.05;95909.13;4987605;28;20443;-73
2023/04/29 01:49:13;;;;;;;6.10;5.50;;;;;;;12.48;81.21;95904.63;4987923;28;20522;-73
2023/04/29 01:51:38;;;;;;;7.27;6.10;;;;;;;12.48;81.39;95896.72;4987875;28;20443;-71
2023/04/29 01:54:04;;;;;;;6.43;5.83;;;;;;;12.51;81.05;95898.31;4987850;28;20291;-71
2023/04/29 01:56:29;;;;;;;8.73;6.53;;;;;;;12.52;80.89;95897.41;5001818;28;20185;-73
2023/04/29 01:58:55;;;;;;;9.30;6.87;;;;;;;12.48;81.91;95894.09;4985653;28;20239;-73
2023/04/29 02:01:21;;;;;;;11.70;8.40;;;;;;;12.50;81.77;95894.00;4984100;28;20199;-72
2023/04/29 02:03:46;;;;;;;10.07;8.00;;;;;;;12.49;81.91;95893.13;4978158;28;20219;-72
2023/04/29 02:06:11;;;;;;;11.33;8.50;;;;;;;12.56;81.78;95898.88;4975526;28;20196;-74
2023/04/29 02:08:37;;;;;;;8.77;7.87;;;;;;;12.53;81.80;95892.97;4984499;28;20204;-73
2023/04/29 02:11:02;;;;;;;10.90;7.90;;;;;;;12.55;81.85;95884.03;4982063;28;20275;-73
2023/04/29 02:13:28;;;;;;;7.00;6.40;;;;;;;12.53;82.21;95885.91;4984011;28;21262;-72
2023/04/29 02:15:53;;;;;;;10.23;7.97;;;;;;;12.56;82.30;95882.25;4977306;28;20185;-72
2023/04/29 02:18:18;;;;;;;8.73;7.90;;;;;;;12.59;82.06;95884.69;4976259;28;20193;-73
2023/04/29 02:20:44;;;;;;;10.33;8.10;;;;;;;12.54;82.83;95897.28;4984322;28;20196;-73
2023/04/29 02:23:10;;;;;;;9.00;7.87;;;;;;;12.57;82.16;95889.22;4983163;28;20290;-72
2023/04/29 02:25:36;;;;;;;7.73;7.03;;;;;;;12.56;82.00;95891.00;4987455;28;20641;-72
2023/04/29 02:28:01;;;;;;;8.63;7.70;;;;;;;12.55;82.65;95891.94;4980298;28;20550;-72
2023/04/29 02:30:27;;;;;;;8.47;7.67;;;;;;;12.58;81.74;95891.75;4986632;28;20674;-71
2023/04/29 02:32:53;;;;;;;9.10;7.00;;;;;;;12.58;82.19;95897.00;4986536;28;20192;-70
2023/04/29 02:35:18;;;;;;;7.27;6.60;;;;;;;12.63;81.99;95899.38;4986754;28;20187;-72
2023/04/29 02:37:44;;;;;;;7.60;6.90;;;;;;;12.61;82.08;95895.97;4983826;28;20801;-70
2023/04/29 02:40:10;;;;;;;8.10;7.17;;;;;;;12.68;81.92;95902.56;4983678;28;20192;-71
2023/04/29 02:42:35;;;;;;;7.27;6.57;;;;;;;12.66;81.96;95900.06;4985081;28;20227;-71
2023/04/29 02:45:01;;;;;;;9.43;6.53;;;;;;;12.62;81.88;95895.06;4985986;28;20714;-70
2023/04/29 02:47:26;;;;;;;7.77;6.97;;;;;;;12.65;82.15;95892.22;4978919;28;20264;-71
2023/04/29 02:49:52;;;;;;;12.40;7.23;;;;;;;12.62;81.96;95892.44;4986469;28;20213;-73
2023/04/29 02:52:17;;;;;;;7.97;7.17;;;;;;;12.53;82.56;95890.34;4986825;28;20184;-71
2023/04/29 02:54:43;;;;;;;18.33;8.90;;;;;;;12.60;81.97;95889.88;4986105;28;20226;-70
2023/04/29 02:57:09;;;;;;;8.77;6.70;;;;;;;12.56;82.94;95895.41;4985342;28;20189;-72
2023/04/29 02:59:35;;;;;;;7.03;6.33;;;;;;;12.47;82.95;95889.78;4986598;28;20176;-72
2023/04/29 03:02:01;;;;;;;7.47;6.77;;;;;;;12.53;82.26;95895.59;4986496;28;20812;-72
2023/04/29 03:04:27;;;;;;;7.83;7.03;;;;;;;12.53;82.87;95887.72;4986494;28;20258;-72
2023/04/29 03:06:55;;;;;;;8.10;6.07;;;;;;;12.54;82.58;95892.88;4986041;28;20869;-71
2023/04/29 03:09:21;;;;;;;8.30;7.30;;;;;;;12.53;83.20;95893.81;4981042;28;20220;-70
2023/04/29 03:11:47;;;;;;;8.53;7.73;;;;;;;12.58;82.47;95890.91;4986867;28;20456;-73
2023/04/29 03:14:12;;;;;;;10.73;7.57;;;;;;;12.57;82.62;95889.22;4986941;28;21260;-73
2023/04/29 03:16:37;;;;;;;8.43;6.87;;;;;;;12.63;82.42;95889.69;4987491;28;20219;-72
2023/04/29 03:19:03;;;;;;;9.73;7.80;;;;;;;12.60;82.00;95891.66;4988153;28;20259;-72
2023/04/29 03:21:28;;;;;;;10.00;7.30;;;;;;;12.49;83.08;95881.78;4986649;28;20196;-71
2023/04/29 03:23:55;;;;;;;8.50;7.53;;;;;;;12.48;83.29;95882.72;4986756;28;20212;-72
2023/04/29 03:26:23;;;;;;;11.23;7.73;;;;;;;12.48;83.04;95877.47;4986271;28;20203;-71
2023/04/29 03:28:48;;;;;;;7.73;7.03;;;;;;;12.54;82.70;95884.97;4983940;28;20872;-71
2023/04/29 03:31:15;;;;;;;13.57;7.30;;;;;;;12.51;82.75;95887.78;4985711;28;20439;-72
2023/04/29 03:33:40;;;;;;;7.57;6.77;;;;;;;12.51;82.40;95882.53;4986110;28;20287;-72
2023/04/29 03:36:07;;;;;;;7.20;6.50;;;;;;;12.44;82.40;95874.16;4985504;28;20442;-73
2023/04/29 03:38:33;;;;;;;14.47;7.03;;;;;;;12.36;83.11;95871.13;4985652;28;20597;-73
2023/04/29 03:40:58;;;;;;;13.73;7.70;;;;;;;12.40;82.61;95871.78;4983717;28;20436;-71
2023/04/29 03:43:23;;;;;;;21.70;8.20;;;;;;;12.44;83.27;95881.19;4977823;28;20760;-71
2023/04/29 03:45:49;;;;;;;15.00;8.30;;;;;;;12.36;83.10;95876.41;4979669;28;20173;-71
2023/04/29 03:48:15;;;;;;;10.40;6.70;;;;;;;12.40;82.35;95883.19;4985706;28;20188;-71
2023/04/29 03:50:41;;;;;;;16.03;7.50;;;;;;;12.40;82.41;95879.69;4985693;28;20181;-71
2023/04/29 03:53:07;;;;;;;15.83;6.37;;;;;;;12.33;82.67;95879.22;4985095;28;20454;-71
2023/04/29 03:55:32;;;;;;;7.53;6.80;;;;;;;12.35;82.87;95885.22;4984972;28;20181;-72
2023/04/29 03:57:58;;;;;;;11.93;6.60;;;;;;;12.33;83.27;95879.22;4980292;28;20527;-73
2023/04/29 04:00:25;;;;;;;6.23;5.63;;;;;;;12.31;82.16;95881.09;4978747;28;20260;-71
2023/04/29 04:02:51;;;;;;;7.90;6.27;;;;;;;12.36;82.75;95884.31;4985134;28;20181;-71
2023/04/29 04:05:19;;;;;;;6.63;6.03;;;;;;;12.31;82.16;95886.38;4986009;28;20454;-71
2023/04/29 04:07:45;;;;;;;10.00;5.90;;;;;;;12.32;82.81;95885.41;4985381;28;20251;-70
2023/04/29 04:10:11;;;;;;;7.17;5.93;;;;;;;12.37;82.62;95888.59;4985729;28;20467;-72
2023/04/29 04:12:36;;;;;;;8.07;6.23;;;;;;;12.43;82.25;95895.31;4985526;28;20681;-71
2023/04/29 04:15:03;;;;;;;10.10;6.87;;;;;;;12.37;82.75;95898.28;4982456;28;20197;-71
2023/04/29 04:17:28;;;;;;;7.90;6.27;;;;;;;12.32;82.23;95892.47;4985891;28;20720;-72
2023/04/29 04:19:54;;;;;;;9.97;6.37;;;;;;;12.37;82.07;95887.78;4988173;28;20492;-70
2023/04/29 04:22:19;;;;;;;10.67;6.40;;;;;;;12.42;82.39;95896.22;4987168;28;20834;-71
2023/04/29 04:24:45;;;;;;;10.60;6.40;;;;;;;12.35;82.46;95905.44;4990914;28;20301;-74
2023/04/29 04:27:11;;;;;;;8.10;7.00;;;;;;;12.36;82.29;95892.19;4987925;28;20639;-70
2023/04/29 04:29:36;;;;;;;18.17;7.50;;;;;;;12.35;82.55;95894.91;4984817;28;20296;-71
2023/04/29 04:32:01;;;;;;;11.07;7.37;;;;;;;12.45;82.77;95899.53;4984174;28;20177;-70
2023/04/29 04:34:27;;;;;;;8.47;6.70;;;;;;;12.44;82.53;95903.09;4984551;28;20204;-72
2023/04/29 04:36:52;;;;;;;11.00;7.90;;;;;;;12.56;81.77;95904.16;4988758;28;20181;-71
2023/04/29 04:39:18;;;;;;;7.37;6.57;;;;;;;12.53;81.67;95906.97;4987085;28;20918;-71
2023/04/29 04:41:43;;;;;;;9.87;7.07;;;;;;;12.52;82.28;95901.78;4988594;28;20260;-71
2023/04/29 04:44:09;;;;;;;10.80;7.63;;;;;;;12.63;82.01;95910.75;4988404;28;20208;-71
2023/04/29 04:46:34;;;;;;;13.60;7.50;;;;;;;12.58;82.22;95911.97;4984779;28;20185;-72
2023/04/29 04:49:00;;;;;;;9.50;7.80;;;;;;;12.60;81.83;95918.00;4988244;28;20208;-71
2023/04/29 04:51:27;;;;;;;13.00;8.33;;;;;;;12.66;82.48;95910.59;4987073;28;20188;-72
2023/04/29 04:53:52;;;;;;;16.70;9.00;;;;;;;12.69;82.06;95914.81;4988532;28;20197;-72
2023/04/29 04:56:18;;;;;;;12.93;8.63;;;;;;;12.82;81.33;95922.81;4988485;28;20514;-73
2023/04/29 04:58:43;;;;;;;22.80;10.00;;;;;;;12.76;81.90;95921.41;4987827;28;20276;-71
2023/04/29 05:01:09;;;;;;;13.53;9.33;;;;;;;12.78;82.62;95913.38;4984558;28;20185;-72
2023/04/29 05:03:34;;;;;;;23.37;8.80;;;;;;;12.84;81.12;95911.25;4987972;28;20235;-71
2023/04/29 05:06:00;;;;;;;10.93;7.80;;;;;;;12.88;81.75;95918.03;4987663;28;20181;-71
2023/04/29 05:08:26;;;;;;;40.53;10.07;;;;;;;12.96;80.94;95927.25;4982242;28;20482;-70
2023/04/29 05:10:51;;;;;;;17.90;10.70;;;;;;;12.82;81.25;95925.44;4985678;28;20638;-71
2023/04/29 05:13:17;;;;;;;21.87;8.87;;;;;;;12.86;81.19;95919.06;4988596;28;20472;-70
2023/04/29 05:15:44;;;;;;;12.90;8.50;;;;;;;12.83;81.13;95932.41;4986445;28;20185;-71
2023/04/29 05:18:10;;;;;;;20.40;11.97;;;;;;;12.59;81.97;95934.72;4987592;28;20570;-71
2023/04/29 05:20:35;;;;;;;14.00;8.77;;;;;;;12.77;81.31;95944.16;4985506;28;20431;-70
2023/04/29 05:23:02;;;;;;;25.93;10.80;;;;;;;12.88;80.57;95946.16;4987210;28;20456;-70
2023/04/29 05:25:27;;;;;;;13.43;8.63;;;;;;;12.95;80.79;95946.63;4987967;28;21016;-71
2023/04/29 05:27:53;;;;;;;19.70;8.90;;;;;;;12.96;79.67;95946.53;4985356;28;20433;-72
2023/04/29 05:30:19;;;;;;;10.87;9.77;;;;;;;13.00;79.57;95945.41;4984168;28;20208;-71
2023/04/29 05:32:44;;;;;;;15.60;8.90;;;;;;;13.00;79.91;95955.09;4984909;28;20611;-70
2023/04/29 05:35:10;;;;;;;11.70;8.90;;;;;;;12.96;79.68;95958.84;4986767;28;20486;-71
2023/04/29 05:37:36;;;;;;;13.67;9.20;;;;;;;12.99;80.36;95962.16;4979902;28;20489;-71
2023/04/29 05:40:01;;;;;;;23.03;10.87;;;;;;;13.00;81.13;95963.00;4987469;28;20425;-71
2023/04/29 05:42:27;;;;;;;11.47;10.27;;;;;;;13.13;80.33;95958.66;4986529;28;20258;-72
2023/04/29 05:44:52;;;;;;;12.93;9.80;;;;;;;13.10;80.45;95962.31;4985097;28;20211;-70
2023/04/29 05:47:18;;;;;;;18.67;10.87;;;;;;;13.19;80.81;95960.09;4987766;28;20187;-71
2023/04/29 05:49:43;;;;;;;13.30;11.50;;;;;;;13.22;80.07;95976.53;4987259;28;20208;-72
2023/04/29 05:52:09;;;;;;;13.10;10.80;;;;;;;13.22;81.18;95973.91;4987687;28;20180;-72
2023/04/29 05:54:34;;;;;;;13.83;12.27;;;;;;;13.22;80.20;95981.81;4986259;28;20220;-70
2023/04/29 05:57:02;;;;;;;12.90;11.50;;;;;;;13.18;80.93;95984.72;4981387;28;20181;-71
2023/04/29 05:59:31;;;;;;;15.43;12.20;;;;;;;13.28;80.26;95989.38;4986096;28;21936;-71
2023/04/29 06:01:57;;;;;;;15.67;12.67;;;;;;;13.27;80.47;95995.56;4983892;28;20420;-72
2023/04/29 06:04:24;;;;;;;23.00;13.67;;;;;;;13.34;80.47;95993.41;4983947;28;20983;-72
2023/04/29 06:06:50;;;;;;;20.63;13.77;;;;;;;13.38;80.38;95991.47;4988952;28;20479;-72
2023/04/29 06:09:15;;;;;;;22.63;14.50;;;;;;;13.47;80.22;95989.09;4988206;28;20464;-71
2023/04/29 06:11:41;;;;;;;27.37;17.00;;;;;;;13.46;80.61;95991.81;4989199;28;20432;-72
2023/04/29 06:14:06;;;;;;;24.73;14.80;;;;;;;13.44;80.18;95997.22;4986948;28;20327;-71
2023/04/29 06:16:32;;;;;;;19.90;14.27;;;;;;;13.60;79.89;95998.88;4989274;28;20181;-72
2023/04/29 06:18:58;;;;;;;27.80;14.40;;;;;;;13.81;79.39;95994.03;4987388;28;20184;-71
2023/04/29 06:21:23;;;;;;;32.90;17.10;;;;;;;13.90;78.53;95998.75;4989833;28;20180;-71
2023/04/29 06:23:49;;;;;;;30.13;13.87;;;;;;;13.93;78.29;95990.63;4988631;28;20798;-72
2023/04/29 06:26:15;;;;;;;21.90;13.03;;;;;;;14.04;78.20;95998.72;4975137;28;20196;-71
2023/04/29 06:28:40;;;;;;;14.93;11.70;;;;;;;14.22;77.23;95999.31;4988589;28;20212;-71
2023/04/29 06:31:06;;;;;;;20.17;12.80;;;;;;;14.31;76.42;96006.63;4988775;28;20177;-71
2023/04/29 06:33:33;;;;;;;20.00;13.70;;;;;;;14.20;77.27;96001.22;4988990;28;20282;-72
2023/04/29 06:35:58;;;;;;;18.97;15.40;;;;;;;14.09;77.29;96012.44;4988278;28;20192;-73
2023/04/29 06:38:24;;;;;;;16.63;13.43;;;;;;;14.11;77.21;96010.56;4981021;28;21185;-73
2023/04/29 06:40:49;;;;;;;16.63;12.53;;;;;;;14.19;77.16;96007.41;4981829;28;20328;-73
2023/04/29 06:43:14;;;;;;;12.50;11.07;;;;;;;14.60;75.65;96010.03;4985358;28;20287;-73
2023/04/29 06:45:40;;;;;;;20.40;10.67;;;;;;;14.76;75.40;96003.72;4980113;28;20672;-72
2023/04/29 06:48:06;;;;;;;14.73;8.40;;;;;;;14.55;75.17;96001.59;4982891;28;20177;-73
2023/04/29 06:50:32;;;;;;;9.00;7.53;;;;;;;14.63;75.22;96005.50;4971488;28;20220;-74
2023/04/29 06:52:57;;;;;;;7.93;6.97;;;;;;;15.36;73.54;96000.50;4986918;28;20634;-73
2023/04/29 06:55:23;;;;;;;7.90;6.43;;;;;;;15.96;71.21;96000.75;4985093;28;20443;-73
2023/04/29 06:57:48;;;;;;;7.83;5.93;;;;;;;16.19;69.78;96005.25;4982452;28;20184;-73
2023/04/29 07:00:14;;;;;;;6.70;6.10;;;;;;;16.07;69.91;95998.19;4985998;28;20196;-73
2023/04/29 07:02:40;;;;;;;6.60;5.73;;;;;;;16.81;68.11;95998.94;4978658;28;20184;-73
2023/04/29 07:05:06;;;;;;;8.00;7.17;;;;;;;16.87;67.18;96008.25;4984816;28;20835;-73
2023/04/29 07:07:31;;;;;;;15.20;6.67;;;;;;;16.62;67.87;96004.72;4982098;28;20273;-73
2023/04/29 07:09:57;;;;;;;6.17;5.67;;;;;;;16.67;67.63;96007.88;4982528;28;20208;-71
2023/04/29 07:12:22;;;;;;;8.00;6.10;;;;;;;17.10;67.19;96006.47;4982247;28;20180;-72
2023/04/29 07:14:48;;;;;;;6.60;5.93;;;;;;;17.83;64.71;95993.78;4984599;28;20594;-71
2023/04/29 07:17:13;;;;;;;9.17;6.07;;;;;;;17.69;64.35;96000.16;4983445;28;20808;-72
2023/04/29 07:19:39;;;;;;;6.07;5.47;;;;;;;17.39;65.19;96016.69;4986643;28;20192;-72
2023/04/29 07:22:04;;;;;;;5.73;5.10;;;;;;;17.03;66.53;96021.16;4983121;28;20197;-73
2023/04/29 07:24:29;;;;;;;7.60;6.80;;;;;;;16.58;68.17;96021.81;4983752;28;20211;-71
2023/04/29 07:26:56;;;;;;;7.30;5.33;;;;;;;16.40;69.13;96020.53;4986151;28;20236;-71
2023/04/29 07:29:21;;;;;;;16.90;6.63;;;;;;;16.76;68.69;96018.75;4984995;28;20558;-72
2023/04/29 07:31:47;;;;;;;7.37;5.53;;;;;;;17.47;65.45;96017.75;4982948;28;20436;-72
2023/04/29 07:34:12;;;;;;;11.83;5.20;;;;;;;17.68;63.79;96025.84;4986448;28;20613;-71
2023/04/29 07:36:38;;;;;;;5.57;4.27;;;;;;;18.13;60.54;96023.19;4978202;28;20231;-70
2023/04/29 07:39:03;;;;;;;4.83;3.37;;;;;;;18.37;58.25;96016.88;4984813;28;20559;-69
2023/04/29 07:41:29;;;;;;;4.70;3.30;;;;;;;18.48;55.78;96018.69;4983661;28;20902;-69
2023/04/29 07:43:54;;;;;;;7.17;2.60;;;;;;;18.72;56.16;96016.66;4987387;28;20239;-68
2023/04/29 07:46:20;;;;;;;7.13;3.40;;;;;;;19.04;53.87;96010.50;4984749;28;20584;-69
2023/04/29 07:48:45;;;;;;;4.90;2.97;;;;;;;19.10;53.63;96009.97;4984440;28;20283;-68
2023/04/29 07:51:14;;;;;;;7.60;2.37;;;;;;;19.30;52.93;96012.75;4981115;28;20184;-69
2023/04/29 07:53:40;;;;;;;6.50;2.80;;;;;;;19.55;53.04;96020.34;4987430;28;20372;-69
2023/04/29 07:56:06;;;;;;;9.27;3.57;;;;;;;19.73;52.69;96014.44;4989344;28;20426;-68
2023/04/29 07:58:32;;;;;;;4.30;2.40;;;;;;;19.91;50.65;96015.47;4990822;28;20415;-68
2023/04/29 08:01:05;;;;;;;9.80;3.10;;;;;;;19.91;49.07;96017.31;4990876;28;20878;-69
2023/04/29 08:03:31;;;;;;;11.63;2.80;;;;;;;20.22;49.51;96007.44;4990535;28;20343;-69
2023/04/29 08:06:01;;;;;;;30.30;5.73;;;;;;;19.90;49.43;96027.13;4991060;28;20423;-69
2023/04/29 08:08:26;;;;;;;9.53;2.67;;;;;;;20.20;49.45;96025.41;4989566;28;20896;-71
2023/04/29 08:10:51;;;;;;;117.03;9.87;;;;;;;20.36;49.67;96020.38;4990925;28;20416;-69
2023/04/29 08:13:17;;;;;;;64.77;6.90;;;;;;;20.51;49.75;96018.19;4990489;28;20197;-70
2023/04/29 08:15:42;;;;;;;110.53;11.70;;;;;;;20.71;48.34;96035.06;4990823;28;20251;-71
2023/04/29 08:18:08;;;;;;;72.37;7.90;;;;;;;20.77;46.56;96034.53;4990570;28;20177;-70
2023/04/29 08:20:33;;;;;;;25.23;4.43;;;;;;;20.36;47.83;96019.56;4990879;28;20176;-72
2023/04/29 08:22:59;;;;;;;222.33;20.33;;;;;;;20.63;47.73;96032.28;4990749;28;21047;-72
2023/04/29 08:25:25;;;;;;;450.63;38.83;;;;;;;20.75;47.36;96039.16;4988789;28;20172;-68
2023/04/29 08:27:51;;;;;;;21.53;4.00;;;;;;;20.37;46.62;96030.09;4989275;28;20412;-70
2023/04/29 08:30:17;;;;;;;331.77;28.00;;;;;;;20.74;46.76;96026.81;4987710;28;20542;-71
2023/04/29 08:32:42;;;;;;;26.30;3.77;;;;;;;20.89;46.34;96032.56;4988013;28;20251;-69
2023/04/29 08:35:08;;;;;;;10.40;2.63;;;;;;;21.15;45.24;96036.34;4987728;28;20188;-70
2023/04/29 08:37:33;;;;;;;25.37;3.87;;;;;;;21.34;44.85;96032.81;4987887;28;20650;-72
2023/04/29 08:39:59;;;;;;;22.10;4.03;;;;;;;21.15;45.66;96030.19;4987978;28;20923;-69
2023/04/29 08:42:36;;;;;;;10.07;2.80;;;;;;;21.49;44.42;96035.06;4982789;28;20177;-71
2023/04/29 08:45:03;;;;;;;7.40;2.13;;;;;;;21.48;42.92;96038.75;4979625;28;20745;-70
2023/04/29 08:47:41;;;;;;;11.67;2.30;;;;;;;21.48;42.62;96030.72;4984387;28;20507;-70
2023/04/29 08:50:10;;;;;;;12.30;3.07;;;;;;;;;;4974270;28;20464;-72
2023/04/29 08:52:35;;;;;;;78.23;8.80;;;;;;;21.25;42.31;96036.34;4982107;28;20463;-70
2023/04/29 08:55:01;;;;;;;840.20;75.70;;;;;;;21.49;42.77;96032.41;4988300;28;20837;-70
2023/04/29 08:57:29;;;;;;;17.17;4.17;;;;;;;21.55;41.58;96032.66;4981858;28;20260;-72
2023/04/29 08:59:54;;;;;;;64.67;8.70;;;;;;;21.67;43.76;96037.84;4984749;28;20431;-70
2023/04/29 09:02:23;;;;;;;331.23;29.60;;;;;;;22.19;43.96;96030.19;4979034;28;20527;-68
2023/04/29 09:05:12;;;;;;;224.67;21.27;;;;;;;22.11;42.13;96030.94;4980466;28;20489;-68
2023/04/29 09:07:39;;;;;;;18.60;4.20;;;;;;;22.07;42.41;96040.25;4985817;28;20499;-70
2023/04/29 09:10:06;;;;;;;5.50;1.90;;;;;;;21.63;38.79;96037.28;4979515;28;20527;-71
2023/04/29 09:12:31;;;;;;;6.70;2.27;;;;;;;21.17;40.85;96046.91;4982051;28;20494;-70
2023/04/29 09:14:57;;;;;;;14.20;2.30;;;;;;;21.05;40.22;96042.69;4986779;28;20455;-68
2023/04/29 09:17:41;;;;;;;27.93;3.47;;;;;;;21.34;41.36;96038.16;4987031;28;20952;-70
2023/04/29 09:20:18;;;;;;;13.30;2.60;;;;;;;21.54;40.77;96033.66;4987006;28;20253;-70
2023/04/29 09:22:48;;;;;;;49.13;6.23;;;;;;;22.06;41.61;96038.53;4983163;28;21316;-70
2023/04/29 09:25:14;;;;;;;10.23;2.10;;;;;;;21.35;41.85;96031.84;4988330;28;21087;-70
2023/04/29 09:27:39;;;;;;;39.73;4.60;;;;;;;20.78;43.33;96041.53;4986999;28;20450;-71
2023/04/29 09:30:06;;;;;;;4.10;3.70;;;;;;;20.52;43.96;96044.69;4985485;28;20963;-69
2023/04/29 09:32:31;;;;;;;58.90;6.60;;;;;;;20.64;44.12;96047.28;4986325;28;20177;-70
2023/04/29 09:34:56;;;;;;;56.90;6.43;;;;;;;20.50;43.48;96045.81;4985457;28;20459;-70
2023/04/29 09:37:25;;;;;;;64.17;8.17;;;;;;;20.63;42.33;96049.09;4993920;28;20275;-69
2023/04/29 09:39:50;;;;;;;23.90;4.53;;;;;;;20.68;41.70;96049.53;4983784;28;20586;-70
2023/04/29 09:42:16;;;;;;;18.80;2.63;;;;;;;20.55;41.70;96042.72;4986776;28;20436;-70
2023/04/29 09:44:43;;;;;;;17.40;2.90;;;;;;;20.80;40.53;96044.06;5000284;28;20769;-70
2023/04/29 09:47:09;;;;;;;12.23;1.97;;;;;;;20.73;40.51;96046.44;4986684;28;20181;-69
2023/04/29 09:49:39;;;;;;;9.20;1.93;;;;;;;20.86;38.63;96055.03;4986152;28;20479;-69
2023/04/29 09:52:07;;;;;;;18.53;3.10;;;;;;;21.13;40.90;96051.66;4982822;28;20432;-71
2023/04/29 09:54:35;;;;;;;26.30;3.70;;;;;;;20.84;43.26;96057.00;4981498;28;20546;-70
2023/04/29 09:57:01;;;;;;;39.47;4.77;;;;;;;20.52;45.18;96050.03;4981531;28;20448;-69
2023/04/29 09:59:27;;;;;;;34.60;4.43;;;;;;;20.85;44.32;96052.50;4981467;28;20425;-69
2023/04/29 10:01:54;;;;;;;5.77;2.97;;;;;;;21.12;42.89;96051.81;4982932;28;20438;-69
2023/04/29 10:04:22;;;;;;;38.57;9.00;;;;;;;20.54;44.39;96051.72;4980758;28;20518;-69
2023/04/29 10:06:50;;;;;;;172.30;18.90;;;;;;;20.73;44.44;96049.13;4984209;28;20440;-68
2023/04/29 10:09:16;;;;;;;71.27;8.00;;;;;;;20.63;44.01;96057.09;4985043;28;20511;-68
2023/04/29 10:11:47;;;;;;;28.03;4.83;;;;;;;20.48;43.73;96056.63;4985017;28;20483;-69
2023/04/29 10:14:24;;;;;;;9.60;2.97;;;;;;;20.73;43.95;96059.78;4981704;28;20497;-69
2023/04/29 10:17:10;;;;;;;10.93;2.90;;;;;;;20.66;43.54;96053.31;4983627;28;21096;-69
2023/04/29 10:19:42;;;;;;;7.10;2.47;;;;;;;20.61;42.23;96051.06;4984350;28;20439;-68
2023/04/29 10:22:18;;;;;;;4.73;2.40;;;;;;;20.69;42.50;96056.56;4984841;28;20428;-70
2023/04/29 10:24:45;;;;;;;6.50;2.80;;;;;;;20.45;43.06;96046.22;4976901;28;20459;-72
2023/04/29 10:27:13;;;;;;;9.73;2.10;;;;;;;20.48;43.75;96045.97;4970977;28;20440;-70
2023/04/29 10:29:40;;;;;;;5.90;3.87;;;;;;;20.61;43.46;96058.22;4983979;28;21050;-69
2023/04/29 10:32:11;;;;;;;15.00;4.30;;;;;;;20.35;44.66;96044.53;4982917;28;20524;-69
2023/04/29 10:34:40;;;;;;;11.87;3.03;;;;;;;20.26;44.15;96052.34;4986206;28;20884;-69
2023/04/29 10:37:10;;;;;;;10.77;3.40;;;;;;;20.37;44.31;96050.56;4986346;28;20456;-69
2023/04/29 10:40:00;;;;;;;3.23;2.40;;;;;;;20.73;43.60;96046.44;4982900;28;20423;-69
2023/04/29 10:42:31;;;;;;;6.40;2.90;;;;;;;20.81;42.74;96041.28;4979484;28;20424;-70
2023/04/29 10:45:21;;;;;;;6.73;2.27;;;;;;;21.05;41.93;96038.19;4986042;28;20474;-72
2023/04/29 10:48:05;;;;;;;5.17;2.73;;;;;;;21.47;40.58;96034.38;4982964;28;20964;-71
2023/04/29 10:50:41;;;;;;;5.57;1.97;;;;;;;21.41;39.67;96032.28;4983140;28;20467;-71
2023/04/29 10:53:06;;;;;;;5.87;2.27;;;;;;;21.24;38.39;96026.66;4978359;28;20455;-70
2023/04/29 10:55:36;;;;;;;4.70;2.07;;;;;;;21.21;39.87;96034.09;4985238;28;20428;-69
2023/04/29 10:58:02;;;;;;;3.13;2.30;;;;;;;21.10;41.74;96024.44;4982518;28;20590;-70
2023/04/29 11:00:31;;;;;;;11.30;3.70;;;;;;;20.95;42.13;96026.66;4974454;28;20435;-69
2023/04/29 11:02:58;;;;;;;6.03;2.50;;;;;;;20.85;42.64;96020.50;4979158;28;20519;-69
2023/04/29 11:05:34;;;;;;;7.53;2.60;;;;;;;20.73;43.19;96017.13;4985584;28;20879;-69
2023/04/29 11:08:15;;;;;;;9.60;3.00;;;;;;;20.45;44.41;96021.41;4981078;28;21201;-69
2023/04/29 11:10:41;;;;;;;5.50;2.83;;;;;;;20.73;45.13;96023.28;4982962;28;20564;-70
2023/04/29 11:13:26;;;;;;;5.00;1.80;;;;;;;20.21;43.39;96025.25;4984022;28;20466;-68
2023/04/29 11:15:53;;;;;;;7.20;3.70;;;;;;;20.50;45.51;96016.50;4980892;28;20439;-69
2023/04/29 11:18:18;;;;;;;15.83;3.67;;;;;;;20.52;44.04;96015.38;4996156;28;21245;-67
2023/04/29 11:21:03;;;;;;;12.00;2.77;;;;;;;20.86;43.81;96014.19;4982914;28;20431;-69
2023/04/29 11:23:28;;;;;;;9.23;1.97;;;;;;;20.86;42.40;96006.19;4982666;28;20224;-70
2023/04/29 11:25:54;;;;;;;8.33;2.27;;;;;;;20.91;40.06;96015.44;4983720;28;21051;-69
2023/04/29 11:28:20;;;;;;;15.33;3.60;;;;;;;21.03;43.89;96021.47;4983208;28;21051;-68
2023/04/29 11:30:47;;;;;;;22.03;3.97;;;;;;;20.91;42.57;96019.94;4984168;28;20827;-68